createdAt,value
2018-10-11T00:00:59.888Z,98.08
2018-10-11T00:01:59.879Z,98.08
2018-10-11T00:02:59.875Z,98.85
2018-10-11T00:03:59.865Z,98.75
2018-10-11T00:04:59.858Z,99.14
2018-10-11T00:05:59.851Z,99.04
2018-10-11T00:06:59.843Z,99.33
2018-10-11T00:07:59.839Z,99.90
2018-10-11T00:08:59.828Z,99.71
2018-10-11T00:09:59.820Z,99.71
2018-10-11T00:10:59.817Z,99.62
2018-10-11T00:11:59.805Z,99.71
2018-10-11T00:12:59.798Z,98.85
2018-10-11T00:13:59.791Z,98.94
2018-10-11T00:14:59.784Z,99.04
2018-10-11T00:15:59.784Z,98.85
2018-10-11T00:16:59.769Z,99.04
2018-10-11T00:17:59.760Z,99.04
2018-10-11T00:18:59.754Z,98.75
2018-10-11T00:19:59.801Z,98.85
2018-10-11T00:20:59.740Z,98.85
2018-10-11T00:21:59.732Z,98.99
2018-10-11T00:22:59.724Z,98.80
2018-10-11T00:23:59.720Z,98.08
2018-10-11T00:24:59.710Z,98.47
2018-10-11T00:25:59.702Z,98.33
2018-10-11T00:26:59.695Z,98.33
2018-10-11T00:27:59.688Z,98.47
2018-10-11T00:28:59.680Z,98.18
2018-10-11T00:29:59.672Z,98.80
2018-10-11T00:30:59.665Z,98.23
2018-10-11T00:31:59.659Z,97.66
2018-10-11T00:32:59.651Z,97.56
2018-10-11T00:33:59.643Z,97.18
2018-10-11T00:34:59.641Z,96.84
2018-10-11T00:35:59.633Z,96.18
2018-10-11T00:36:59.620Z,95.03
2018-10-11T00:37:59.613Z,94.74
2018-10-11T00:38:59.607Z,94.65
2018-10-11T00:39:59.600Z,94.26
2018-10-11T00:40:59.592Z,94.17
2018-10-11T00:41:59.583Z,94.46
2018-10-11T00:42:59.576Z,94.51
2018-10-11T00:43:59.569Z,95.07
2018-10-11T00:44:59.562Z,95.27
2018-10-11T00:45:59.554Z,96.13
2018-10-11T00:46:59.547Z,95.84
2018-10-11T00:47:59.540Z,95.94
2018-10-11T00:48:59.532Z,95.94
2018-10-11T00:49:59.523Z,95.84
2018-10-11T00:50:59.518Z,95.94
2018-10-11T00:51:59.513Z,95.36
2018-10-11T00:52:59.503Z,95.17
2018-10-11T00:53:59.495Z,95.27
2018-10-11T00:54:59.488Z,95.17
2018-10-11T00:55:59.481Z,95.94
2018-10-11T00:56:59.474Z,96.08
2018-10-11T00:57:59.465Z,96.84
2018-10-11T00:58:59.458Z,96.56
2018-10-11T00:59:59.452Z,97.52
2018-10-11T01:00:59.444Z,97.52
2018-10-11T01:01:59.436Z,97.89
2018-10-11T01:02:59.428Z,98.18
2018-10-11T01:03:59.422Z,97.89
2018-10-11T01:04:59.415Z,98.03
2018-10-11T01:05:59.408Z,98.66
2018-10-11T01:06:59.398Z,98.13
2018-10-11T01:07:59.391Z,98.52
2018-10-11T01:08:59.384Z,98.71
2018-10-11T01:09:59.417Z,98.71
2018-10-11T01:10:59.369Z,98.61
2018-10-11T01:11:59.365Z,99.76
2018-10-11T01:12:59.354Z,99.76
2018-10-11T01:13:59.346Z,99.85
2018-10-11T01:14:59.339Z,99.99
2018-10-11T01:15:59.331Z,99.85
2018-10-11T01:16:59.325Z,99.99
2018-10-11T01:17:59.320Z,99.99
2018-10-11T01:18:59.319Z,99.99
2018-10-11T01:19:59.301Z,99.99
2018-10-11T01:20:59.294Z,99.99
2018-10-11T01:21:59.285Z,99.99
2018-10-11T01:22:59.282Z,99.99
2018-10-11T01:23:59.271Z,99.99
2018-10-11T01:24:59.265Z,99.99
2018-10-11T01:25:59.254Z,99.99
2018-10-11T01:26:59.247Z,99.99
2018-10-11T01:27:59.240Z,99.99
2018-10-11T01:28:59.232Z,99.99
2018-10-11T01:29:59.281Z,99.99
2018-10-11T01:30:59.217Z,99.99
2018-10-11T01:31:59.209Z,99.99
2018-10-11T01:32:59.202Z,99.99
2018-10-11T01:33:59.193Z,99.99
2018-10-11T01:34:59.186Z,99.99
2018-10-11T01:35:59.181Z,99.99
2018-10-11T01:36:59.170Z,99.99
2018-10-11T01:37:59.163Z,99.99
2018-10-11T01:38:59.154Z,99.99
2018-10-11T01:39:59.193Z,99.99
2018-10-11T01:40:59.139Z,99.99
2018-10-11T01:41:59.131Z,99.99
2018-10-11T01:42:59.123Z,99.99
2018-10-11T01:43:59.116Z,99.99
2018-10-11T01:44:59.113Z,99.99
2018-10-11T01:45:59.100Z,99.99
2018-10-11T01:46:59.093Z,99.99
2018-10-11T01:47:59.085Z,99.99
2018-10-11T01:48:59.076Z,99.99
2018-10-11T01:49:59.072Z,99.99
2018-10-11T01:50:59.061Z,99.99
2018-10-11T01:51:59.053Z,99.99
2018-10-11T01:52:59.047Z,99.99
2018-10-11T01:53:59.038Z,99.99
2018-10-11T01:54:59.030Z,99.99
2018-10-11T01:55:59.023Z,99.99
2018-10-11T01:56:59.015Z,99.99
2018-10-11T01:57:59.006Z,99.99
2018-10-11T01:58:58.999Z,99.99
2018-10-11T01:59:58.991Z,99.99
2018-10-11T02:00:58.992Z,99.99
2018-10-11T02:01:58.974Z,99.99
2018-10-11T02:02:58.967Z,99.99
2018-10-11T02:03:58.958Z,99.99
2018-10-11T02:04:58.951Z,99.99
2018-10-11T02:05:58.943Z,99.99
2018-10-11T02:06:58.934Z,99.99
2018-10-11T02:07:58.926Z,99.99
2018-10-11T02:08:58.919Z,99.99
2018-10-11T02:09:58.913Z,99.99
2018-10-11T02:10:58.904Z,99.99
2018-10-11T02:11:58.900Z,99.99
2018-10-11T02:12:58.890Z,99.99
2018-10-11T02:13:58.880Z,99.99
2018-10-11T02:14:58.871Z,99.99
2018-10-11T02:15:58.863Z,99.99
2018-10-11T02:16:58.854Z,99.99
2018-10-11T02:17:58.846Z,99.99
2018-10-11T02:18:58.838Z,99.99
2018-10-11T02:19:58.830Z,99.99
2018-10-11T02:20:58.831Z,99.99
2018-10-11T02:21:58.813Z,99.99
2018-10-11T02:22:58.805Z,99.99
2018-10-11T02:23:58.797Z,99.99
2018-10-11T02:24:58.789Z,99.99
2018-10-11T02:25:58.780Z,99.99
2018-10-11T02:26:58.772Z,99.99
2018-10-11T02:27:58.763Z,99.99
2018-10-11T02:28:58.760Z,99.99
2018-10-11T02:29:58.747Z,99.99
2018-10-11T02:30:58.740Z,99.99
2018-10-11T02:31:58.778Z,99.99
2018-10-11T02:32:58.723Z,99.99
2018-10-11T02:33:58.715Z,99.99
2018-10-11T02:34:58.706Z,99.99
2018-10-11T02:35:58.697Z,99.99
2018-10-11T02:36:58.940Z,99.99
2018-10-11T02:37:58.683Z,99.99
2018-10-11T02:38:58.671Z,99.99
2018-10-11T02:39:58.664Z,99.99
2018-10-11T02:40:58.655Z,99.99
2018-10-11T02:41:58.646Z,99.99
2018-10-11T02:42:58.639Z,99.99
2018-10-11T02:43:58.629Z,99.99
2018-10-11T02:44:58.622Z,99.99
2018-10-11T02:45:58.615Z,99.99
2018-10-11T02:46:58.610Z,99.99
2018-10-11T02:47:58.597Z,99.99
2018-10-11T02:48:58.590Z,99.99
2018-10-11T02:49:58.580Z,99.99
2018-10-11T02:50:58.572Z,99.99
2018-10-11T02:51:58.564Z,99.99
2018-10-11T02:52:58.556Z,99.99
2018-10-11T02:53:58.547Z,99.99
2018-10-11T02:54:58.539Z,99.99
2018-10-11T02:55:58.531Z,99.99
2018-10-11T02:56:58.525Z,99.99
2018-10-11T02:57:58.514Z,99.99
2018-10-11T02:58:58.508Z,99.99
2018-10-11T02:59:58.500Z,99.99
2018-10-11T03:00:58.491Z,99.99
2018-10-11T03:01:58.481Z,99.99
2018-10-11T03:02:58.474Z,99.99
2018-10-11T03:03:58.466Z,99.99
2018-10-11T03:04:58.462Z,99.99
2018-10-11T03:05:58.453Z,99.99
2018-10-11T03:06:58.441Z,99.99
2018-10-11T03:07:58.435Z,99.99
2018-10-11T03:08:58.426Z,99.99
2018-10-11T03:09:58.418Z,99.99
2018-10-11T03:10:58.409Z,99.99
2018-10-11T03:11:58.401Z,99.99
2018-10-11T03:12:58.393Z,99.99
2018-10-11T03:13:58.383Z,99.99
2018-10-11T03:14:58.375Z,99.99
2018-10-11T03:15:58.368Z,99.99
2018-10-11T03:16:58.359Z,99.99
2018-10-11T03:17:58.351Z,99.99
2018-10-11T03:18:58.344Z,99.99
2018-10-11T03:19:58.334Z,99.99
2018-10-11T03:20:58.326Z,99.99
2018-10-11T03:21:58.319Z,99.99
2018-10-11T03:22:58.309Z,99.99
2018-10-11T03:23:58.301Z,99.99
2018-10-11T03:24:58.294Z,99.99
2018-10-11T03:25:58.284Z,99.99
2018-10-11T03:26:58.276Z,99.99
2018-10-11T03:27:58.269Z,99.99
2018-10-11T03:28:58.263Z,99.99
2018-10-11T03:29:58.250Z,99.99
2018-10-11T03:30:58.242Z,99.99
2018-10-11T03:31:58.234Z,99.99
2018-10-11T03:32:58.226Z,99.99
2018-10-11T03:33:58.216Z,99.99
2018-10-11T03:34:58.208Z,99.99
2018-10-11T03:35:58.200Z,99.99
2018-10-11T03:36:58.192Z,99.99
2018-10-11T03:37:58.182Z,99.99
2018-10-11T03:38:58.173Z,99.99
2018-10-11T03:39:58.166Z,99.99
2018-10-11T03:40:58.157Z,99.99
2018-10-11T03:41:58.147Z,99.99
2018-10-11T03:42:58.141Z,99.99
2018-10-11T03:43:58.131Z,99.99
2018-10-11T03:44:58.123Z,99.99
2018-10-11T03:45:58.113Z,99.99
2018-10-11T03:46:58.159Z,99.99
2018-10-11T03:47:58.097Z,99.99
2018-10-11T03:48:58.088Z,99.99
2018-10-11T03:49:58.079Z,99.99
2018-10-11T03:50:58.071Z,99.99
2018-10-11T03:51:58.062Z,99.99
2018-10-11T03:52:58.057Z,99.99
2018-10-11T03:53:58.044Z,99.99
2018-10-11T03:54:58.042Z,99.99
2018-10-11T03:55:58.028Z,99.99
2018-10-11T03:56:58.020Z,99.99
2018-10-11T03:57:58.011Z,99.99
2018-10-11T03:58:58.007Z,99.99
2018-10-11T03:59:57.994Z,99.99
2018-10-11T04:00:57.986Z,99.99
2018-10-11T04:01:57.977Z,99.99
2018-10-11T04:02:57.968Z,99.99
2018-10-11T04:03:57.960Z,99.99
2018-10-11T04:04:57.954Z,99.99
2018-10-11T04:05:57.943Z,99.99
2018-10-11T04:06:57.935Z,99.99
2018-10-11T04:07:57.927Z,99.99
2018-10-11T04:08:57.919Z,99.99
2018-10-11T04:09:57.910Z,99.99
2018-10-11T04:10:57.902Z,99.99
2018-10-11T04:11:57.893Z,99.99
2018-10-11T04:12:57.889Z,99.99
2018-10-11T04:13:57.877Z,99.99
2018-10-11T04:14:57.869Z,99.99
2018-10-11T04:15:57.861Z,99.99
2018-10-11T04:16:57.853Z,99.99
2018-10-11T04:17:57.847Z,99.99
2018-10-11T04:18:57.836Z,99.99
2018-10-11T04:19:57.833Z,99.99
2018-10-11T04:20:57.824Z,99.99
2018-10-11T04:21:57.811Z,99.99
2018-10-11T04:22:57.806Z,99.99
2018-10-11T04:23:57.798Z,99.99
2018-10-11T04:24:57.786Z,99.99
2018-10-11T04:25:57.781Z,99.99
2018-10-11T04:26:57.769Z,99.99
2018-10-11T04:27:57.765Z,99.99
2018-10-11T04:28:57.752Z,99.99
2018-10-11T04:29:57.803Z,99.99
2018-10-11T04:30:57.736Z,99.99
2018-10-11T04:31:57.733Z,99.99
2018-10-11T04:32:57.720Z,99.99
2018-10-11T04:33:57.711Z,99.99
2018-10-11T04:34:57.703Z,99.99
2018-10-11T04:35:57.698Z,99.99
2018-10-11T04:36:57.686Z,99.99
2018-10-11T04:37:57.681Z,99.99
2018-10-11T04:38:57.671Z,99.99
2018-10-11T04:39:57.661Z,99.99
2018-10-11T04:40:57.655Z,99.99
2018-10-11T04:41:57.645Z,99.85
2018-10-11T04:42:57.730Z,99.95
2018-10-11T04:43:57.629Z,99.76
2018-10-11T04:44:57.626Z,99.95
2018-10-11T04:45:57.612Z,99.18
2018-10-11T04:46:57.604Z,99.95
2018-10-11T04:47:57.596Z,99.66
2018-10-11T04:48:57.591Z,99.99
2018-10-11T04:49:57.583Z,99.99
2018-10-11T04:50:57.572Z,99.66
2018-10-11T04:51:57.564Z,99.85
2018-10-11T04:52:57.556Z,99.76
2018-10-11T04:53:57.550Z,99.80
2018-10-11T04:54:57.540Z,99.99
2018-10-11T04:55:57.536Z,99.62
2018-10-11T04:56:57.524Z,99.99
2018-10-11T04:57:57.515Z,99.99
2018-10-11T04:58:57.509Z,99.99
2018-10-11T04:59:57.498Z,99.52
2018-10-11T05:00:57.492Z,99.80
2018-10-11T05:01:57.486Z,99.71
2018-10-11T05:02:57.474Z,98.94
2018-10-11T05:03:57.468Z,99.04
2018-10-11T05:04:57.460Z,98.57
2018-10-11T05:05:57.452Z,98.75
2018-10-11T05:06:57.444Z,98.37
2018-10-11T05:07:57.436Z,98.28
2018-10-11T05:08:57.429Z,98.28
2018-10-11T05:09:57.420Z,98.37
2018-10-11T05:10:57.412Z,98.37
2018-10-11T05:11:57.404Z,98.66
2018-10-11T05:12:57.397Z,98.66
2018-10-11T05:13:57.388Z,98.28
2018-10-11T05:14:57.381Z,98.28
2018-10-11T05:15:57.372Z,99.04
2018-10-11T05:16:57.366Z,99.23
2018-10-11T05:17:57.362Z,99.04
2018-10-11T05:18:57.356Z,99.14
2018-10-11T05:19:57.342Z,99.14
2018-10-11T05:20:57.337Z,99.33
2018-10-11T05:21:57.326Z,99.33
2018-10-11T05:22:57.318Z,99.14
2018-10-11T05:23:57.310Z,99.04
2018-10-11T05:24:57.303Z,99.14
2018-10-11T05:25:57.350Z,99.04
2018-10-11T05:26:57.288Z,98.85
2018-10-11T05:27:57.279Z,99.04
2018-10-11T05:28:57.272Z,99.04
2018-10-11T05:29:57.264Z,98.75
2018-10-11T05:30:57.257Z,99.09
2018-10-11T05:31:57.251Z,98.85
2018-10-11T05:32:57.244Z,98.94
2018-10-11T05:33:57.234Z,99.14
2018-10-11T05:34:57.227Z,99.80
2018-10-11T05:35:57.219Z,99.71
2018-10-11T05:36:57.212Z,99.99
2018-10-11T05:37:57.246Z,99.99
2018-10-11T05:38:57.197Z,99.62
2018-10-11T05:39:57.215Z,99.71
2018-10-11T05:40:57.184Z,99.99
2018-10-11T05:41:57.174Z,99.99
2018-10-11T05:42:57.166Z,99.99
2018-10-11T05:43:57.163Z,99.99
2018-10-11T05:44:57.153Z,99.80
2018-10-11T05:45:57.144Z,99.80
2018-10-11T05:46:57.141Z,99.62
2018-10-11T05:47:57.147Z,99.62
2018-10-11T05:48:57.122Z,99.14
2018-10-11T05:49:57.115Z,99.09
2018-10-11T05:50:57.106Z,99.04
2018-10-11T05:51:57.102Z,98.47
2018-10-11T05:52:57.095Z,98.75
2018-10-11T05:53:57.084Z,98.57
2018-10-11T05:54:57.076Z,98.47
2018-10-11T05:55:57.069Z,98.94
2018-10-11T05:56:57.079Z,99.33
2018-10-11T05:57:57.053Z,99.23
2018-10-11T05:58:57.045Z,99.99
2018-10-11T05:59:57.042Z,99.99
2018-10-11T06:00:57.038Z,99.62
2018-10-11T06:01:57.024Z,99.80
2018-10-11T06:02:57.016Z,99.99
2018-10-11T06:03:57.007Z,99.80
2018-10-11T06:04:57.005Z,99.90
2018-10-11T06:05:56.993Z,99.99
2018-10-11T06:06:56.985Z,99.99
2018-10-11T06:07:56.978Z,99.99
2018-10-11T06:08:56.974Z,99.99
2018-10-11T06:09:56.966Z,99.99
2018-10-11T06:10:56.958Z,99.99
2018-10-11T06:11:57.018Z,99.99
2018-10-11T06:12:56.940Z,99.99
2018-10-11T06:13:56.932Z,99.99
2018-10-11T06:14:57.127Z,99.99
2018-10-11T06:15:56.916Z,99.99
2018-10-11T06:16:56.911Z,99.99
2018-10-11T06:17:56.997Z,99.99
2018-10-11T06:18:56.894Z,99.99
2018-10-11T06:19:57.093Z,99.95
2018-10-11T06:20:56.881Z,99.19
2018-10-11T06:21:56.870Z,98.23
2018-10-11T06:22:56.868Z,98.61
2018-10-11T06:23:56.855Z,97.85
2018-10-11T06:24:56.909Z,98.13
2018-10-11T06:25:56.840Z,98.04
2018-10-11T06:26:56.837Z,97.85
2018-10-11T06:27:56.832Z,97.28
2018-10-11T06:28:56.817Z,97.94
2018-10-11T06:29:56.811Z,98.33
2018-10-11T06:30:56.802Z,98.13
2018-10-11T06:31:56.794Z,98.52
2018-10-11T06:32:56.790Z,98.23
2018-10-11T06:33:56.778Z,98.90
2018-10-11T06:34:56.772Z,99.09
2018-10-11T06:35:56.823Z,99.09
2018-10-11T06:36:56.960Z,99.85
2018-10-11T06:37:56.753Z,99.99
2018-10-11T06:38:56.745Z,99.85
2018-10-11T06:39:56.734Z,99.95
2018-10-11T06:40:56.731Z,99.66
2018-10-11T06:41:56.847Z,99.99
2018-10-11T06:42:56.715Z,99.85
2018-10-11T06:43:56.707Z,99.99
2018-10-11T06:44:56.697Z,99.99
2018-10-11T06:45:56.690Z,99.99
2018-10-11T06:46:56.683Z,99.76
2018-10-11T06:47:56.683Z,99.14
2018-10-11T06:48:56.669Z,98.47
2018-10-11T06:49:56.765Z,98.09
2018-10-11T06:50:56.655Z,98.09
2018-10-11T06:51:56.649Z,98.09
2018-10-11T06:52:56.644Z,97.42
2018-10-11T06:53:56.632Z,97.90
2018-10-11T06:54:56.626Z,97.85
2018-10-11T06:55:56.672Z,97.66
2018-10-11T06:56:56.615Z,96.99
2018-10-11T06:57:56.611Z,96.32
2018-10-11T06:58:56.600Z,95.51
2018-10-11T06:59:56.596Z,94.55
2018-10-11T07:00:56.588Z,93.30
2018-10-11T07:01:56.658Z,91.92
2018-10-11T07:02:56.579Z,91.92
2018-10-11T07:03:56.569Z,90.77
2018-10-11T07:04:56.563Z,90.53
2018-10-11T07:05:56.761Z,88.90
2018-10-11T07:06:56.555Z,87.65
2018-10-11T07:07:56.544Z,87.94
2018-10-11T07:08:56.538Z,87.12
2018-10-11T07:09:56.536Z,86.64
2018-10-11T07:10:56.526Z,86.25
2018-10-11T07:11:56.521Z,85.88
2018-10-11T07:12:56.516Z,85.49
2018-10-11T07:13:56.537Z,86.07
2018-10-11T07:14:56.505Z,86.35
2018-10-11T07:15:56.503Z,86.25
2018-10-11T07:16:56.497Z,85.30
2018-10-11T07:17:56.487Z,85.88
2018-10-11T07:18:56.482Z,85.88
2018-10-11T07:19:56.480Z,86.54
2018-10-11T07:20:56.474Z,85.68
2018-10-11T07:21:56.469Z,85.97
2018-10-11T07:22:56.460Z,86.16
2018-10-11T07:23:56.454Z,87.31
2018-10-11T07:24:56.450Z,86.54
2018-10-11T07:25:56.484Z,86.93
2018-10-11T07:26:56.441Z,88.17
2018-10-11T07:27:56.433Z,87.98
2018-10-11T07:28:56.430Z,89.51
2018-10-11T07:29:56.427Z,90.57
2018-10-11T07:30:56.417Z,90.67
2018-10-11T07:31:56.412Z,90.95
2018-10-11T07:32:56.410Z,91.63
2018-10-11T07:33:56.401Z,91.34
2018-10-11T07:34:56.481Z,92.10
2018-10-11T07:35:56.397Z,92.15
2018-10-11T07:36:56.391Z,89.13
2018-10-11T07:37:56.388Z,88.65
2018-10-11T07:38:56.382Z,87.79
2018-10-11T07:39:56.371Z,88.37
2018-10-11T07:40:56.379Z,89.23
2018-10-11T07:41:56.365Z,88.84
2018-10-11T07:42:56.360Z,89.90
2018-10-11T07:43:56.355Z,89.13
2018-10-11T07:44:56.347Z,88.94
2018-10-11T07:45:56.396Z,90.04
2018-10-11T07:46:56.395Z,89.18
2018-10-11T07:47:56.332Z,89.85
2018-10-11T07:48:56.327Z,87.16
2018-10-11T07:49:56.322Z,88.12
2018-10-11T07:50:56.320Z,87.93
2018-10-11T07:51:56.313Z,89.08
2018-10-11T07:52:56.374Z,88.31
2018-10-11T07:53:56.310Z,88.60
2018-10-11T07:54:56.306Z,87.16
2018-10-11T07:55:56.499Z,85.63
2018-10-11T07:56:56.294Z,87.11
2018-10-11T07:57:56.488Z,85.67
2018-10-11T07:58:56.282Z,85.38
2018-10-11T07:59:56.277Z,84.81
2018-10-11T08:00:56.281Z,86.15
2018-10-11T08:01:56.470Z,86.34
2018-10-11T08:02:56.265Z,87.11
2018-10-11T08:03:56.262Z,88.65
2018-10-11T08:04:56.259Z,87.68
2018-10-11T08:05:56.252Z,87.98
2018-10-11T08:06:56.250Z,87.11
2018-10-11T08:07:56.253Z,88.07
2018-10-11T08:08:56.459Z,88.35
2018-10-11T08:09:56.239Z,87.68
2018-10-11T08:10:56.285Z,85.48
2018-10-11T08:11:56.320Z,83.98
2018-10-11T08:12:56.225Z,85.33
2018-10-11T08:13:56.220Z,85.91
2018-10-11T08:14:56.216Z,86.00
2018-10-11T08:15:56.271Z,87.05
2018-10-11T08:16:56.594Z,84.95
2018-10-11T08:17:56.492Z,82.16
2018-10-11T08:18:56.368Z,82.16
2018-10-11T08:19:56.342Z,81.78
2018-10-11T08:20:56.195Z,81.68
2018-10-11T08:21:56.193Z,82.74
2018-10-11T08:22:56.184Z,81.68
2018-10-11T08:23:56.181Z,80.91
2018-10-11T08:24:56.273Z,82.16
2018-10-11T08:26:56.272Z,83.03
2018-10-11T08:27:56.170Z,83.31
2018-10-11T08:28:56.177Z,81.87
2018-10-11T08:29:56.158Z,81.20
2018-10-11T08:30:56.153Z,82.16
2018-10-11T08:31:56.149Z,83.22
2018-10-11T08:32:56.167Z,82.16
2018-10-11T08:33:56.142Z,82.26
2018-10-11T08:34:56.140Z,81.20
2018-10-11T08:35:56.134Z,80.09
2018-10-11T08:36:56.130Z,82.20
2018-10-11T08:38:56.122Z,81.72
2018-10-11T08:39:56.120Z,83.93
2018-10-11T08:40:56.115Z,82.87
2018-10-11T08:41:56.111Z,82.87
2018-10-11T08:42:56.112Z,82.97
2018-10-11T08:43:56.139Z,81.82
2018-10-11T08:44:56.104Z,80.96
2018-10-11T08:45:56.101Z,79.99
2018-10-11T08:46:56.092Z,79.90
2018-10-11T08:47:56.090Z,79.55
2018-10-11T08:48:56.092Z,80.51
2018-10-11T08:49:56.082Z,81.09
2018-10-11T08:50:56.217Z,80.32
2018-10-11T08:51:56.078Z,81.28
2018-10-11T08:52:56.073Z,81.09
2018-10-11T08:53:56.071Z,82.15
2018-10-11T08:54:56.066Z,82.19
2018-10-11T08:55:56.072Z,80.94
2018-10-11T08:56:56.064Z,79.79
2018-10-11T08:57:56.057Z,80.46
2018-10-11T08:58:56.054Z,78.63
2018-10-11T08:59:56.051Z,77.96
2018-10-11T09:00:56.049Z,81.13
2018-10-11T09:01:56.045Z,82.04
2018-10-11T09:02:56.043Z,82.38
2018-10-11T09:03:56.350Z,82.67
2018-10-11T09:04:56.076Z,84.25
2018-10-11T09:05:56.036Z,79.73
2018-10-11T09:06:56.032Z,80.02
2018-10-11T09:07:56.030Z,80.30
2018-10-11T09:08:56.028Z,82.23
2018-10-11T09:09:56.028Z,82.14
2018-10-11T09:10:56.094Z,82.14
2018-10-11T09:11:56.025Z,82.52
2018-10-11T09:12:56.026Z,82.27
2018-10-11T09:13:56.015Z,84.10
2018-10-11T09:14:56.014Z,78.13
2018-10-11T09:15:56.012Z,78.42
2018-10-11T09:16:56.010Z,76.78
2018-10-11T09:17:56.008Z,75.24
2018-10-11T09:18:56.007Z,72.97
2018-10-11T09:19:56.009Z,73.26
2018-10-11T09:20:56.003Z,74.19
2018-10-11T09:21:56.001Z,78.56
2018-10-11T09:22:56.206Z,73.84
2018-10-11T09:23:56.003Z,71.14
2018-10-11T09:24:56.000Z,73.74
2018-10-11T09:25:55.996Z,71.04
2018-10-11T09:26:55.996Z,70.86
2018-10-11T09:27:55.998Z,71.66
2018-10-11T09:28:56.000Z,71.37
2018-10-11T09:29:55.993Z,71.08
2018-10-11T09:30:55.994Z,71.76
2018-10-11T09:31:55.992Z,68.29
2018-10-11T09:32:56.197Z,67.81
2018-10-11T09:33:55.997Z,67.90
2018-10-11T09:34:55.989Z,68.96
2018-10-11T09:35:55.989Z,68.48
2018-10-11T09:36:56.010Z,68.00
2018-10-11T09:37:55.985Z,68.68
2018-10-11T09:38:55.986Z,68.87
2018-10-11T09:39:55.984Z,69.06
2018-10-11T09:40:55.986Z,69.73
2018-10-11T09:41:56.187Z,70.98
2018-10-11T09:42:56.001Z,70.89
2018-10-11T09:43:55.979Z,72.91
2018-10-11T09:44:55.977Z,70.47
2018-10-11T09:45:55.975Z,71.04
2018-10-11T09:46:55.974Z,69.51
2018-10-11T09:47:55.980Z,71.04
2018-10-11T09:48:56.103Z,72.01
2018-10-11T09:49:55.970Z,74.80
2018-10-11T09:50:55.967Z,71.78
2018-10-11T09:51:56.167Z,71.11
2018-10-11T09:52:56.051Z,69.47
2018-10-11T09:53:55.960Z,70.15
2018-10-11T09:54:56.086Z,71.78
2018-10-11T09:55:55.956Z,70.92
2018-10-11T09:56:55.954Z,70.05
2018-10-11T09:57:55.955Z,70.72
2018-10-11T09:58:55.951Z,70.53
2018-10-11T09:59:55.945Z,68.80
2018-10-11T10:00:55.946Z,68.90
2018-10-11T10:01:55.976Z,68.70
2018-10-11T10:02:55.939Z,68.90
2018-10-11T10:03:55.939Z,71.14
2018-10-11T10:04:55.932Z,71.81
2018-10-11T10:05:55.935Z,72.49
2018-10-11T10:06:55.929Z,68.93
2018-10-11T10:07:56.127Z,71.91
2018-10-11T10:08:55.923Z,73.55
2018-10-11T10:09:55.928Z,69.41
2018-10-11T10:10:55.920Z,73.36
2018-10-11T10:11:55.915Z,76.44
2018-10-11T10:12:55.912Z,74.26
2018-10-11T10:13:55.912Z,75.61
2018-10-11T10:14:55.909Z,73.01
2018-10-11T10:15:55.907Z,68.87
2018-10-11T10:16:56.111Z,71.18
2018-10-11T10:17:55.905Z,70.89
2018-10-11T10:18:55.899Z,74.55
2018-10-11T10:19:55.902Z,75.03
2018-10-11T10:20:55.914Z,76.18
2018-10-11T10:21:55.893Z,76.28
2018-10-11T10:22:55.892Z,71.95
2018-10-11T10:23:55.891Z,73.58
2018-10-11T10:24:55.892Z,71.95
2018-10-11T10:25:55.889Z,73.49
2018-10-11T10:26:55.941Z,71.37
2018-10-11T10:27:55.882Z,68.93
2018-10-11T10:28:55.881Z,69.25
2018-10-11T10:29:55.878Z,71.18
2018-10-11T10:30:56.078Z,73.16
2018-10-11T10:31:55.876Z,73.49
2018-10-11T10:32:55.872Z,74.26
2018-10-11T10:33:55.928Z,75.76
2018-10-11T10:34:55.875Z,75.42
2018-10-11T10:35:55.864Z,74.80
2018-10-11T10:36:55.863Z,75.76
2018-10-11T10:37:55.860Z,75.76
2018-10-11T10:38:56.263Z,76.48
2018-10-11T10:39:55.887Z,76.48
2018-10-11T10:40:55.854Z,76.28
2018-10-11T10:41:55.852Z,76.18
2018-10-11T10:42:55.850Z,76.18
2018-10-11T10:43:55.849Z,75.80
2018-10-11T10:44:55.851Z,75.32
2018-10-11T10:45:55.844Z,76.28
2018-10-11T10:48:55.903Z,75.71
2018-10-11T10:49:55.837Z,74.55
2018-10-11T10:50:55.836Z,73.49
2018-10-11T10:51:55.840Z,73.91
2018-10-11T10:52:55.836Z,73.91
2018-10-11T10:53:55.831Z,73.14
2018-10-11T10:54:55.830Z,72.66
2018-10-11T10:56:55.833Z,71.79
2018-10-11T10:57:55.825Z,72.47
2018-10-11T10:58:55.824Z,72.56
2018-10-11T10:59:55.822Z,72.37
2018-10-11T11:00:55.822Z,72.18
2018-10-11T11:01:55.821Z,72.27
2018-10-11T11:02:55.818Z,71.50
2018-10-11T11:03:55.820Z,72.08
2018-10-11T11:04:55.819Z,70.54
2018-10-11T11:05:55.818Z,70.44
2018-10-11T11:06:55.812Z,69.57
2018-10-11T11:07:55.810Z,70.25
2018-10-11T11:08:55.809Z,70.92
2018-10-11T11:09:55.807Z,69.87
2018-10-11T11:10:55.805Z,69.96
2018-10-11T11:11:55.804Z,70.00
2018-10-11T11:12:55.807Z,69.23
2018-10-11T11:13:55.800Z,69.61
2018-10-11T11:14:55.800Z,69.03
2018-10-11T11:15:55.798Z,69.03
2018-10-11T11:16:55.796Z,68.93
2018-10-11T11:17:55.800Z,68.19
2018-10-11T11:18:55.839Z,68.59
2018-10-11T11:19:55.794Z,68.33
2018-10-11T11:20:55.792Z,67.85
2018-10-11T11:21:55.792Z,69.04
2018-10-11T11:22:55.792Z,67.59
2018-10-11T11:23:55.795Z,67.11
2018-10-11T11:24:55.791Z,66.14
2018-10-11T11:25:55.790Z,66.53
2018-10-11T11:26:55.795Z,65.85
2018-10-11T11:27:55.792Z,65.66
2018-10-11T11:29:55.795Z,66.72
2018-10-11T11:30:55.840Z,66.56
2018-10-11T11:31:55.796Z,66.14
2018-10-11T11:32:55.795Z,66.33
2018-10-11T11:33:55.795Z,66.69
2018-10-11T11:34:55.798Z,67.27
2018-10-11T11:35:55.795Z,67.27
2018-10-11T11:36:55.794Z,67.94
2018-10-11T11:37:55.794Z,68.10
2018-10-11T11:38:55.794Z,68.59
2018-10-11T11:39:55.842Z,68.77
2018-10-11T11:40:55.793Z,68.97
2018-10-11T11:41:55.792Z,68.59
2018-10-11T11:42:55.792Z,68.97
2018-10-11T11:43:55.790Z,68.59
2018-10-11T11:44:55.794Z,68.87
2018-10-11T11:45:55.859Z,68.93
2018-10-11T11:46:55.786Z,69.13
2018-10-11T11:47:55.787Z,69.61
2018-10-11T11:48:55.788Z,69.64
2018-10-11T11:49:55.795Z,68.77
2018-10-11T11:50:55.780Z,68.29
2018-10-11T11:51:55.790Z,69.29
2018-10-11T11:52:55.788Z,68.33
2018-10-11T11:53:55.781Z,68.17
2018-10-11T11:54:55.781Z,68.55
2018-10-11T11:55:55.780Z,67.59
2018-10-11T11:56:55.777Z,67.46
2018-10-11T11:57:55.808Z,68.71
2018-10-11T11:58:55.773Z,69.29
2018-10-11T11:59:55.773Z,69.58
2018-10-11T12:00:55.779Z,68.62
2018-10-11T12:01:55.771Z,68.43
2018-10-11T12:02:55.769Z,67.75
2018-10-11T12:03:55.768Z,67.75
2018-10-11T12:04:55.778Z,67.75
2018-10-11T12:05:55.766Z,67.01
2018-10-11T12:06:55.765Z,66.72
2018-10-11T12:07:55.765Z,67.01
2018-10-11T12:08:55.764Z,65.95
2018-10-11T12:09:55.763Z,66.43
2018-10-11T12:10:55.829Z,66.33
2018-10-11T12:11:55.764Z,66.36
2018-10-11T12:12:55.761Z,66.27
2018-10-11T12:13:55.962Z,65.20
2018-10-11T12:14:55.759Z,65.88
2018-10-11T12:15:55.759Z,65.92
2018-10-11T12:16:55.761Z,65.82
2018-10-11T12:17:55.758Z,67.27
2018-10-11T12:18:55.761Z,64.37
2018-10-11T12:19:55.757Z,63.98
2018-10-11T12:20:55.762Z,64.47
2018-10-11T12:21:55.785Z,65.92
2018-10-11T12:22:55.757Z,63.79
2018-10-11T12:23:55.758Z,64.08
2018-10-11T12:24:55.766Z,62.92
2018-10-11T12:25:55.760Z,61.86
2018-10-11T12:26:55.756Z,58.80
2018-10-11T12:27:55.756Z,57.34
2018-10-11T12:28:55.782Z,57.92
2018-10-11T12:29:55.759Z,56.09
2018-10-11T12:30:55.760Z,55.70
2018-10-11T12:31:55.761Z,56.79
2018-10-11T12:32:55.759Z,56.21
2018-10-11T12:33:55.958Z,55.82
2018-10-11T12:34:55.757Z,55.94
2018-10-11T12:35:55.757Z,54.11
2018-10-11T12:36:55.758Z,54.30
2018-10-11T12:37:55.758Z,53.63
2018-10-11T12:38:56.497Z,52.75
2018-10-11T12:39:55.759Z,52.49
2018-10-11T12:40:55.762Z,51.42
2018-10-11T12:41:55.762Z,51.52
2018-10-11T12:42:55.761Z,51.04
2018-10-11T12:43:55.762Z,51.72
2018-10-11T12:44:55.770Z,52.17
2018-10-11T12:45:55.763Z,52.00
2018-10-11T12:46:55.764Z,52.17
2018-10-11T12:47:55.770Z,52.08
2018-10-11T12:48:56.024Z,51.52
2018-10-11T12:49:55.769Z,52.20
2018-10-11T12:50:55.767Z,53.00
2018-10-11T12:51:55.773Z,50.50
2018-10-11T12:52:55.771Z,48.69
2018-10-11T12:53:55.773Z,48.03
2018-10-11T12:54:55.794Z,47.59
2018-10-11T12:55:55.776Z,47.78
2018-10-11T12:56:55.798Z,46.06
2018-10-11T12:57:55.783Z,45.89
2018-10-11T12:58:55.784Z,45.01